createdAt,value
2018-12-29T00:01:47.216Z,96801.94
2018-12-29T00:04:37.329Z,96797.73
2018-12-29T00:07:27.849Z,96798.55
2018-12-29T00:10:18.152Z,96806.70
2018-12-29T00:13:08.361Z,96810.44
2018-12-29T00:16:02.882Z,96806.52
2018-12-29T00:18:53.252Z,96820.97
2018-12-29T00:21:43.559Z,96814.48
2018-12-29T00:24:33.867Z,96817.35
2018-12-29T00:27:24.244Z,96816.69
2018-12-29T00:30:14.032Z,96823.08
2018-12-29T00:33:03.895Z,96822.25
2018-12-29T00:35:54.410Z,96823.20
2018-12-29T00:38:44.416Z,96821.06
2018-12-29T00:41:34.607Z,96816.84
2018-12-29T00:44:25.139Z,96823.66
2018-12-29T00:47:15.041Z,96823.99
2018-12-29T00:50:05.267Z,96821.42
2018-12-29T00:52:55.251Z,96815.41
2018-12-29T00:55:45.141Z,96828.05
2018-12-29T00:58:35.333Z,96829.53
2018-12-29T01:01:25.426Z,96827.20
2018-12-29T01:04:15.319Z,96829.17
2018-12-29T01:07:05.178Z,96833.94
2018-12-29T01:09:55.623Z,96844.33
2018-12-29T01:12:45.788Z,96842.75
2018-12-29T01:15:36.262Z,96850.48
2018-12-29T01:18:26.619Z,96853.67
2018-12-29T01:21:16.384Z,96860.94
2018-12-29T01:24:06.248Z,96864.12
2018-12-29T01:26:56.029Z,96869.58
2018-12-29T01:29:46.291Z,96865.51
2018-12-29T01:32:36.019Z,96868.27
2018-12-29T01:35:26.251Z,96873.63
2018-12-29T01:38:16.478Z,96865.51
2018-12-29T01:41:06.558Z,96874.59
2018-12-29T01:43:56.833Z,96873.56
2018-12-29T01:46:46.658Z,96873.38
2018-12-29T01:49:36.375Z,96869.47
2018-12-29T01:52:26.320Z,96868.16
2018-12-29T01:55:16.003Z,96871.62
2018-12-29T01:58:06.314Z,96864.87
2018-12-29T02:00:56.792Z,96864.34
2018-12-29T02:03:46.756Z,96858.25
2018-12-29T02:06:36.583Z,96844.09
2018-12-29T02:09:26.329Z,96845.51
2018-12-29T02:12:16.115Z,96847.04
2018-12-29T02:15:05.950Z,96860.33
2018-12-29T02:17:56.142Z,96861.39
2018-12-29T02:20:46.568Z,96859.49
2018-12-29T02:23:36.870Z,96870.33
2018-12-29T02:26:27.452Z,96870.48
2018-12-29T02:29:17.348Z,96875.49
2018-12-29T02:32:07.342Z,96876.84
2018-12-29T02:34:57.181Z,96877.09
2018-12-29T02:37:47.553Z,96869.69
2018-12-29T02:40:37.517Z,96866.66
2018-12-29T02:43:27.659Z,96874.56
2018-12-29T02:46:17.803Z,96871.66
2018-12-29T02:49:07.952Z,96872.00
2018-12-29T02:51:58.597Z,96894.00
2018-12-29T02:54:48.675Z,96873.95
2018-12-29T02:57:38.564Z,96874.53
2018-12-29T03:00:28.856Z,96881.50
2018-12-29T03:03:19.501Z,96880.97
2018-12-29T03:06:09.355Z,96883.03
2018-12-29T03:08:59.560Z,96881.57
2018-12-29T03:11:50.064Z,96881.57
2018-12-29T03:14:40.758Z,96878.16
2018-12-29T03:17:30.804Z,96881.56
2018-12-29T03:20:20.714Z,96881.56
2018-12-29T03:23:11.367Z,96878.70
2018-12-29T03:26:01.453Z,96891.89
2018-12-29T03:28:51.172Z,96881.39
2018-12-29T03:31:41.085Z,96868.66
2018-12-29T03:34:31.085Z,96854.09
2018-12-29T03:37:21.304Z,96848.05
2018-12-29T03:40:11.630Z,96860.95
2018-12-29T03:43:01.676Z,96855.06
2018-12-29T03:45:52.841Z,96849.60
2018-12-29T03:48:42.934Z,96842.70
2018-12-29T03:51:33.146Z,96842.70
2018-12-29T03:54:23.027Z,96834.98
2018-12-29T03:57:13.048Z,96829.28
2018-12-29T04:00:03.136Z,96831.48
2018-12-29T04:02:53.350Z,96847.42
2018-12-29T04:05:43.218Z,96838.97
2018-12-29T04:08:33.312Z,96850.61
2018-12-29T04:11:23.433Z,96846.27
2018-12-29T04:14:13.455Z,96852.59
2018-12-29T04:17:03.700Z,96843.23
2018-12-29T04:19:53.668Z,96839.28
2018-12-29T04:22:43.366Z,96828.04
2018-12-29T04:25:33.571Z,96842.42
2018-12-29T04:28:23.496Z,96843.55
2018-12-29T04:31:13.333Z,96843.55
2018-12-29T04:34:03.279Z,96840.91
2018-12-29T04:36:53.479Z,96836.30
2018-12-29T04:39:43.546Z,96836.30
2018-12-29T04:42:33.621Z,96853.46
2018-12-29T04:45:23.083Z,96863.73
2018-12-29T04:48:13.288Z,96856.30
2018-12-29T04:51:03.776Z,96856.66
2018-12-29T04:53:53.837Z,96866.89
2018-12-29T04:56:43.896Z,96859.64
2018-12-29T04:59:34.689Z,96859.64
2018-12-29T05:02:24.849Z,96868.41
2018-12-29T05:05:15.289Z,96868.41
2018-12-29T05:08:05.072Z,96884.88
2018-12-29T05:10:55.519Z,96890.03
2018-12-29T05:13:45.443Z,96890.03
2018-12-29T05:16:35.619Z,96904.57
2018-12-29T05:19:25.945Z,96904.88
2018-12-29T05:22:16.077Z,96912.09
2018-12-29T05:25:06.535Z,96923.67
2018-12-29T05:27:56.351Z,96927.59
2018-12-29T05:30:46.410Z,96930.84
2018-12-29T05:33:36.181Z,96928.75
2018-12-29T05:36:25.813Z,96926.86
2018-12-29T05:39:15.865Z,96930.64
2018-12-29T05:42:05.478Z,96912.73
2018-12-29T05:44:55.312Z,96922.80
2018-12-29T05:47:44.961Z,96905.50
2018-12-29T05:50:34.900Z,96903.88
2018-12-29T05:53:25.300Z,96903.88
2018-12-29T05:56:14.910Z,96915.05
2018-12-29T05:59:04.823Z,96922.14
2018-12-29T06:01:54.538Z,96930.86
2018-12-29T06:04:44.864Z,96929.47
2018-12-29T06:07:34.984Z,96940.86
2018-12-29T06:10:25.001Z,96940.86
2018-12-29T06:13:15.355Z,96946.10
2018-12-29T06:16:06.059Z,96966.35
2018-12-29T06:18:56.400Z,96950.94
2018-12-29T06:21:46.300Z,96950.94
2018-12-29T06:24:36.499Z,96944.36
2018-12-29T06:27:26.697Z,96933.50
2018-12-29T06:30:16.607Z,96927.23
2018-12-29T06:33:06.063Z,96937.39
2018-12-29T06:35:56.176Z,96933.16
2018-12-29T06:38:46.471Z,96933.16
2018-12-29T06:41:36.334Z,96941.46
2018-12-29T06:44:26.155Z,96945.65
2018-12-29T06:47:16.185Z,96938.51
2018-12-29T06:50:06.475Z,96943.63
2018-12-29T06:52:56.566Z,96952.05
2018-12-29T06:55:46.303Z,96952.82
2018-12-29T06:58:36.534Z,96953.88
2018-12-29T07:01:26.359Z,96953.88
2018-12-29T07:04:16.127Z,96958.45
2018-12-29T07:07:06.734Z,96952.59
2018-12-29T07:09:56.918Z,96952.59
2018-12-29T07:12:46.695Z,96962.72
2018-12-29T07:15:36.438Z,96967.83
2018-12-29T07:18:25.942Z,96968.41
2018-12-29T07:21:16.209Z,96965.67
2018-12-29T07:24:06.425Z,96975.28
2018-12-29T07:26:56.390Z,96981.11
2018-12-29T07:29:46.358Z,96976.95
2018-12-29T07:32:36.126Z,96982.27
2018-12-29T07:35:26.066Z,96982.27
2018-12-29T07:38:15.854Z,96997.33
2018-12-29T07:41:06.178Z,96999.38
2018-12-29T07:43:56.568Z,96991.11
2018-12-29T07:46:49.694Z,96984.95
2018-12-29T07:49:38.194Z,96993.79
2018-12-29T07:52:28.314Z,96988.59
2018-12-29T07:55:18.458Z,96995.92
2018-12-29T07:58:08.732Z,97000.31
2018-12-29T08:00:58.872Z,97002.28
2018-12-29T08:03:48.766Z,97016.71
2018-12-29T08:06:38.936Z,97022.58
2018-12-29T08:09:28.918Z,97022.46
2018-12-29T08:12:18.813Z,97025.84
2018-12-29T08:15:08.916Z,97019.39
2018-12-29T08:17:59.797Z,97030.09
2018-12-29T08:20:50.550Z,97030.56
2018-12-29T08:23:41.075Z,97033.06
2018-12-29T08:26:31.770Z,97029.41
2018-12-29T08:29:22.040Z,97031.50
2018-12-29T08:32:12.029Z,97026.73
2018-12-29T08:35:02.174Z,97024.77
2018-12-29T08:37:52.585Z,97026.09
2018-12-29T08:40:42.646Z,97027.14
2018-12-29T08:43:32.626Z,97023.67
2018-12-29T08:46:23.046Z,97018.65
2018-12-29T08:49:13.381Z,97018.41
2018-12-29T08:52:03.748Z,97012.61
2018-12-29T08:54:53.940Z,97021.66
2018-12-29T08:57:43.584Z,97025.05
2018-12-29T09:00:33.867Z,97026.71
2018-12-29T09:03:23.613Z,97029.23
2018-12-29T09:06:13.551Z,97025.38
2018-12-29T09:09:04.482Z,97024.59
2018-12-29T09:11:55.257Z,97032.83
2018-12-29T09:14:45.452Z,97045.84
2018-12-29T09:17:35.281Z,97044.69
2018-12-29T09:20:24.788Z,97042.78
2018-12-29T09:23:14.976Z,97045.73
2018-12-29T09:26:04.850Z,97046.30
2018-12-29T09:28:55.194Z,97058.31
2018-12-29T09:31:45.539Z,97057.75
2018-12-29T09:34:36.172Z,97064.91
2018-12-29T09:37:26.287Z,97057.60
2018-12-29T09:40:16.587Z,97055.97
2018-12-29T09:43:07.090Z,97050.12
2018-12-29T09:45:57.448Z,97050.89
2018-12-29T09:48:47.266Z,97052.73
2018-12-29T09:51:37.487Z,97053.23
2018-12-29T09:54:27.320Z,97049.04
2018-12-29T09:57:17.501Z,97054.16
2018-12-29T10:00:08.210Z,97045.17
2018-12-29T10:02:58.375Z,97039.95
2018-12-29T10:05:48.295Z,97044.93
2018-12-29T10:08:38.645Z,97043.19
2018-12-29T10:11:29.152Z,97053.92
2018-12-29T10:14:19.590Z,97049.74
2018-12-29T10:17:09.978Z,97048.92
2018-12-29T10:20:00.532Z,97054.98
2018-12-29T10:22:51.058Z,97051.27
2018-12-29T10:25:41.229Z,97052.61
2018-12-29T10:28:31.628Z,97053.10
2018-12-29T10:31:22.161Z,97055.08
2018-12-29T10:34:12.928Z,97055.05
2018-12-29T10:37:03.554Z,97051.19
2018-12-29T10:39:53.981Z,97046.02
2018-12-29T10:42:44.124Z,97061.73
2018-12-29T10:45:34.730Z,97062.89
2018-12-29T10:48:24.535Z,97055.02
2018-12-29T10:51:14.903Z,97055.11
2018-12-29T10:54:05.103Z,97052.01
2018-12-29T10:56:55.192Z,97051.42
2018-12-29T10:59:45.380Z,97045.30
2018-12-29T11:02:35.223Z,97052.90
2018-12-29T11:05:25.233Z,97057.95
2018-12-29T11:08:15.722Z,97057.97
2018-12-29T11:11:06.053Z,97057.70
2018-12-29T11:13:56.374Z,97057.55
2018-12-29T11:16:48.534Z,97051.11
2018-12-29T11:19:38.492Z,97043.82
2018-12-29T11:22:28.961Z,97042.74
2018-12-29T11:25:19.470Z,97043.67
2018-12-29T11:28:10.163Z,97046.58
2018-12-29T11:31:01.753Z,97037.95
2018-12-29T11:33:52.330Z,97033.17
2018-12-29T11:36:42.356Z,97037.03
2018-12-29T11:39:32.724Z,97031.45
2018-12-29T11:42:23.030Z,97019.30
2018-12-29T11:45:13.399Z,97010.80
2018-12-29T11:48:03.845Z,97009.59
2018-12-29T11:50:54.187Z,97006.39
2018-12-29T11:53:46.144Z,97007.00
2018-12-29T11:56:36.626Z,97005.66
2018-12-29T11:59:26.632Z,97007.95
2018-12-29T12:02:24.309Z,97010.34
2018-12-29T12:05:08.649Z,97002.41
2018-12-29T12:07:58.170Z,96999.59
2018-12-29T12:10:48.166Z,96993.81
2018-12-29T12:13:38.296Z,97003.69
2018-12-29T12:16:28.357Z,96994.89
2018-12-29T12:19:18.880Z,96989.06
2018-12-29T12:22:09.399Z,96986.12
2018-12-29T12:24:59.051Z,96981.92
2018-12-29T12:27:49.623Z,96984.37
2018-12-29T12:30:39.627Z,96983.20
2018-12-29T12:33:30.394Z,96977.66
2018-12-29T12:36:21.072Z,96976.00
2018-12-29T12:39:10.934Z,96972.59
2018-12-29T12:42:02.370Z,96970.08
2018-12-29T12:44:52.889Z,96959.73
2018-12-29T12:47:42.997Z,96956.78
2018-12-29T12:50:34.370Z,96958.67
2018-12-29T12:53:24.419Z,96957.70
2018-12-29T12:56:14.426Z,96951.87
2018-12-29T12:59:04.592Z,96953.63
2018-12-29T13:01:54.747Z,96958.07
2018-12-29T13:04:44.969Z,96954.13
2018-12-29T13:07:35.409Z,96950.52
2018-12-29T13:10:25.929Z,96963.23
2018-12-29T13:13:16.157Z,96961.63
2018-12-29T13:16:05.763Z,96965.36
2018-12-29T13:18:55.772Z,96959.69
2018-12-29T13:21:48.953Z,96962.41
2018-12-29T13:24:38.991Z,96965.74
2018-12-29T13:27:29.139Z,96965.22
2018-12-29T13:30:19.110Z,96970.57
2018-12-29T13:33:09.826Z,96964.15
2018-12-29T13:36:00.106Z,96958.55
2018-12-29T13:38:50.712Z,96956.80
2018-12-29T13:41:41.079Z,96949.43
2018-12-29T13:44:31.203Z,96955.04
2018-12-29T13:47:21.094Z,96952.53
2018-12-29T13:50:11.425Z,96953.08
2018-12-29T13:53:01.570Z,96953.70
2018-12-29T13:55:51.707Z,96954.98
2018-12-29T13:58:41.924Z,96947.84
2018-12-29T14:01:32.171Z,96957.61
2018-12-29T14:04:22.497Z,96958.23
2018-12-29T14:07:12.518Z,96955.27
2018-12-29T14:10:02.727Z,96951.85
2018-12-29T14:12:52.632Z,96953.02
2018-12-29T14:15:42.540Z,96946.58
2018-12-29T14:18:32.784Z,96947.26
2018-12-29T14:21:22.913Z,96941.27
2018-12-29T14:24:12.680Z,96937.39
2018-12-29T14:27:02.235Z,96934.89
2018-12-29T14:29:52.463Z,96931.92
2018-12-29T14:32:42.783Z,96926.12
2018-12-29T14:35:32.921Z,96920.95
2018-12-29T14:38:23.733Z,96924.60
2018-12-29T14:41:13.990Z,96922.09
2018-12-29T14:44:03.952Z,96924.89
2018-12-29T14:46:53.889Z,96917.55
2018-12-29T14:49:44.026Z,96905.50
2018-12-29T14:52:33.924Z,96900.75
2018-12-29T14:55:24.242Z,96898.82
2018-12-29T14:58:14.384Z,96896.78
2018-12-29T15:01:04.595Z,96883.91
2018-12-29T15:03:55.247Z,96884.74
2018-12-29T15:06:45.826Z,96879.52
2018-12-29T15:09:35.598Z,96884.59
2018-12-29T15:12:25.414Z,96872.94
2018-12-29T15:15:15.717Z,96883.69
2018-12-29T15:18:05.675Z,96893.87
2018-12-29T15:20:56.207Z,96891.52
2018-12-29T15:23:45.952Z,96890.30
2018-12-29T15:26:36.921Z,96890.12
2018-12-29T15:29:27.801Z,96884.52
2018-12-29T15:32:18.627Z,96884.91
2018-12-29T15:35:08.644Z,96886.52
2018-12-29T15:37:59.101Z,96894.13
2018-12-29T15:40:48.592Z,96889.15
2018-12-29T15:43:38.504Z,96885.29
2018-12-29T15:46:28.939Z,96888.61
2018-12-29T15:49:18.832Z,96896.80
2018-12-29T15:52:09.085Z,96903.05
2018-12-29T15:54:59.172Z,96900.98
2018-12-29T15:57:49.174Z,96904.78
2018-12-29T16:00:38.946Z,96897.08
2018-12-29T16:03:29.239Z,96893.30
2018-12-29T16:06:20.047Z,96890.03
2018-12-29T16:09:09.646Z,96884.54
2018-12-29T16:12:00.091Z,96882.31
2018-12-29T16:14:50.353Z,96872.11
2018-12-29T16:17:40.451Z,96866.16
2018-12-29T16:20:31.552Z,96869.99
2018-12-29T16:23:22.374Z,96858.52
2018-12-29T16:26:13.420Z,96864.04
2018-12-29T16:29:04.076Z,96861.06
2018-12-29T16:31:54.623Z,96860.02
2018-12-29T16:34:44.609Z,96855.47
2018-12-29T16:37:34.922Z,96852.89
2018-12-29T16:40:25.068Z,96857.94
2018-12-29T16:43:15.045Z,96852.11
2018-12-29T16:46:04.938Z,96840.06
2018-12-29T16:48:54.870Z,96837.14
2018-12-29T16:51:45.024Z,96827.69
2018-12-29T16:54:35.494Z,96815.50
2018-12-29T16:57:25.584Z,96812.18
2018-12-29T17:00:16.074Z,96794.61
2018-12-29T17:03:06.401Z,96786.15
2018-12-29T17:05:56.556Z,96792.50
2018-12-29T17:08:46.383Z,96790.14
2018-12-29T17:11:36.546Z,96774.80
2018-12-29T17:14:26.556Z,96769.66
2018-12-29T17:17:17.159Z,96763.74
2018-12-29T17:20:07.274Z,96769.90
2018-12-29T17:22:58.154Z,96771.08
2018-12-29T17:25:48.481Z,96773.22
2018-12-29T17:28:38.150Z,96776.67
2018-12-29T17:31:28.027Z,96765.03
2018-12-29T17:34:18.296Z,96766.79
2018-12-29T17:37:08.692Z,96773.97
2018-12-29T17:39:59.661Z,96772.68
2018-12-29T17:42:51.193Z,96791.26
2018-12-29T17:45:41.626Z,96787.77
2018-12-29T17:48:31.793Z,96783.98
2018-12-29T17:51:21.757Z,96794.26
2018-12-29T17:54:12.454Z,96797.20
2018-12-29T17:57:02.950Z,96790.11
2018-12-29T17:59:53.155Z,96778.95
2018-12-29T18:02:43.226Z,96770.48
2018-12-29T18:05:33.832Z,96758.62
2018-12-29T18:08:24.240Z,96767.14
2018-12-29T18:11:14.350Z,96774.77
2018-12-29T18:14:04.995Z,96780.31
2018-12-29T18:16:56.108Z,96786.57
2018-12-29T18:19:46.558Z,96791.69
2018-12-29T18:22:36.333Z,96787.75
2018-12-29T18:25:26.352Z,96781.59
2018-12-29T18:28:16.438Z,96794.88
2018-12-29T18:31:06.291Z,96793.30
2018-12-29T18:33:56.801Z,96787.41
2018-12-29T18:36:46.793Z,96793.09
2018-12-29T18:39:37.054Z,96785.98
2018-12-29T18:42:27.043Z,96779.38
2018-12-29T18:45:17.293Z,96766.45
2018-12-29T18:48:07.285Z,96761.47
2018-12-29T18:50:57.688Z,96752.79
2018-12-29T18:53:47.618Z,96745.22
2018-12-29T18:56:45.307Z,96742.27
2018-12-29T18:59:30.048Z,96747.35
2018-12-29T19:02:20.527Z,96712.64
2018-12-29T19:05:10.841Z,96728.73
2018-12-29T19:08:00.795Z,96724.13
2018-12-29T19:10:50.574Z,96734.93
2018-12-29T19:13:41.302Z,96741.97
2018-12-29T19:16:31.399Z,96730.86
2018-12-29T19:19:21.829Z,96737.42
2018-12-29T19:22:11.901Z,96731.00
2018-12-29T19:25:02.089Z,96723.16
2018-12-29T19:27:52.339Z,96704.48
2018-12-29T19:30:42.958Z,96706.56
2018-12-29T19:33:33.776Z,96705.63
2018-12-29T19:36:24.723Z,96683.52
2018-12-29T19:39:14.777Z,96670.37
2018-12-29T19:42:05.132Z,96687.86
2018-12-29T19:44:55.404Z,96684.08
2018-12-29T19:47:45.825Z,96695.63
2018-12-29T19:50:36.824Z,96703.80
2018-12-29T19:53:26.781Z,96701.51
2018-12-29T19:56:16.588Z,96704.08
2018-12-29T19:59:06.562Z,96698.86
2018-12-29T20:01:57.034Z,96695.01
2018-12-29T20:04:47.113Z,96694.36
2018-12-29T20:07:37.615Z,96697.01
2018-12-29T20:10:28.013Z,96710.14
2018-12-29T20:13:18.492Z,96708.75
2018-12-29T20:16:08.373Z,96691.28
2018-12-29T20:18:58.636Z,96681.09
2018-12-29T20:21:48.254Z,96681.30
2018-12-29T20:24:39.291Z,96653.34
2018-12-29T20:27:29.049Z,96653.88
2018-12-29T20:30:19.195Z,96683.27
2018-12-29T20:33:09.343Z,96676.31
2018-12-29T20:35:59.689Z,96686.75
2018-12-29T20:38:50.083Z,96691.31
2018-12-29T20:41:40.998Z,96711.23
2018-12-29T20:44:31.153Z,96720.35
2018-12-29T20:47:21.219Z,96737.84
2018-12-29T20:50:11.558Z,96733.53
2018-12-29T20:53:01.939Z,96722.80
2018-12-29T20:55:51.899Z,96730.59
2018-12-29T20:58:42.510Z,96726.31
2018-12-29T21:01:33.342Z,96715.00
2018-12-29T21:04:23.791Z,96706.58
2018-12-29T21:07:13.956Z,96708.49
2018-12-29T21:10:05.193Z,96719.22
2018-12-29T21:12:55.821Z,96713.94
2018-12-29T21:15:45.814Z,96681.00
2018-12-29T21:18:35.953Z,96656.33
2018-12-29T21:21:26.386Z,96658.77
2018-12-29T21:24:16.311Z,96669.27
2018-12-29T21:27:06.962Z,96682.81
2018-12-29T21:29:56.895Z,96685.22
2018-12-29T21:32:47.780Z,96694.86
2018-12-29T21:35:39.497Z,96692.89
2018-12-29T21:38:29.813Z,96674.92
2018-12-29T21:41:19.879Z,96677.97
2018-12-29T21:44:10.548Z,96656.28
2018-12-29T21:47:01.108Z,96646.20
2018-12-29T21:49:51.827Z,96639.38
2018-12-29T21:52:42.207Z,96635.91
2018-12-29T21:55:32.756Z,96619.61
2018-12-29T21:58:23.023Z,96607.46
2018-12-29T22:01:13.711Z,96600.19
2018-12-29T22:04:03.540Z,96601.02
2018-12-29T22:06:53.954Z,96599.36
2018-12-29T22:09:44.214Z,96585.16
2018-12-29T22:15:24.382Z,96559.55
2018-12-29T22:18:15.024Z,96545.42
2018-12-29T22:23:54.684Z,96554.36
2018-12-29T22:26:44.508Z,96532.98
2018-12-29T22:29:34.487Z,96529.13
2018-12-29T22:32:24.699Z,96521.80
2018-12-29T22:35:15.254Z,96520.88
2018-12-29T22:38:05.713Z,96513.20
2018-12-29T22:40:55.950Z,96509.78
2018-12-29T22:43:45.767Z,96504.79
2018-12-29T22:46:36.333Z,96506.59
2018-12-29T22:49:26.478Z,96510.91
2018-12-29T22:52:17.072Z,96512.26
2018-12-29T22:55:07.572Z,96507.97
2018-12-29T22:57:57.985Z,96504.27
2018-12-29T23:00:50.229Z,96501.75
2018-12-29T23:03:39.904Z,96507.45
2018-12-29T23:06:29.909Z,96497.77
2018-12-29T23:09:20.351Z,96495.25
2018-12-29T23:12:10.501Z,96488.31
2018-12-29T23:15:01.186Z,96506.23
2018-12-29T23:17:51.524Z,96509.00
2018-12-29T23:20:48.916Z,96508.78
2018-12-29T23:23:33.493Z,96510.09
2018-12-29T23:26:23.370Z,96509.33
2018-12-29T23:29:13.556Z,96513.55
2018-12-29T23:32:03.875Z,96508.35
2018-12-29T23:34:52.725Z,96517.77
2018-12-29T23:37:40.951Z,96511.45
2018-12-29T23:40:30.775Z,96509.45
2018-12-29T23:43:20.750Z,96503.50
2018-12-29T23:46:10.654Z,96494.75
2018-12-29T23:49:00.787Z,96506.77
2018-12-29T23:51:51.043Z,96497.45
2018-12-29T23:54:41.462Z,96491.62
2018-12-29T23:57:31.135Z,96497.18
